TR-0040 weather

Manavgat Airport
Manavgat, Antalya Province, Turkey

Public forecast

Using degrees Celsius for public forecast. Weather courtesy of forecast.io.

Closest aviation weather report (METAR) to Manavgat Airport

Closest report is Antalya International Airport, 35.4 nm (65.6 km) WNW. Retrieved 2019/12/08 20:20 UTC (22 minutes ago):

LTAI 082020Z 34011KT 9999 SCT030 13/04 Q1013 NOSIG RMK RWY18C 33008KT RWY36R 33010KT RWY18L 33009KT

Closest aviation forecast (TAF) to Manavgat Airport

Closest forecast is Antalya International Airport, 35.4 nm (65.6 km) WNW. Retrieved 2019/12/08 18:03 UTC (3 hours ago):

TAF LTAI 081640Z 0818/0918 34012KT 9999 SCT030 BECMG 0908/0912 VRB02KT